sensor_id;sensor_type;location;lat;lon;timestamp;temperature;humidity
71082;SHT31;58740;50.672;18.690;2023-05-19T00:00:30;9.62;74.00
71082;SHT31;58740;50.672;18.690;2023-05-19T00:03:17;9.62;74.20
71082;SHT31;58740;50.672;18.690;2023-05-19T00:05:48;9.63;74.29
71082;SHT31;58740;50.672;18.690;2023-05-19T00:08:20;9.62;74.30
71082;SHT31;58740;50.672;18.690;2023-05-19T00:10:51;9.62;74.33
71082;SHT31;58740;50.672;18.690;2023-05-19T00:13:19;9.65;74.49
71082;SHT31;58740;50.672;18.690;2023-05-19T00:15:48;9.67;74.43
71082;SHT31;58740;50.672;18.690;2023-05-19T00:18:17;9.68;74.32
71082;SHT31;58740;50.672;18.690;2023-05-19T00:20:45;9.66;74.39
71082;SHT31;58740;50.672;18.690;2023-05-19T00:23:12;9.67;74.53
71082;SHT31;58740;50.672;18.690;2023-05-19T00:25:40;9.68;74.52
71082;SHT31;58740;50.672;18.690;2023-05-19T00:28:08;9.66;74.55
71082;SHT31;58740;50.672;18.690;2023-05-19T00:30:36;9.63;74.62
71082;SHT31;58740;50.672;18.690;2023-05-19T00:33:04;9.63;74.57
71082;SHT31;58740;50.672;18.690;2023-05-19T00:35:31;9.63;74.65
71082;SHT31;58740;50.672;18.690;2023-05-19T00:37:59;9.63;74.77
71082;SHT31;58740;50.672;18.690;2023-05-19T00:40:27;9.61;74.82
71082;SHT31;58740;50.672;18.690;2023-05-19T00:42:58;9.60;74.92
71082;SHT31;58740;50.672;18.690;2023-05-19T00:45:26;9.60;74.99
71082;SHT31;58740;50.672;18.690;2023-05-19T00:47:55;9.60;75.02
71082;SHT31;58740;50.672;18.690;2023-05-19T00:50:23;9.61;74.99
71082;SHT31;58740;50.672;18.690;2023-05-19T00:52:51;9.60;75.03
71082;SHT31;58740;50.672;18.690;2023-05-19T00:55:20;9.60;74.99
71082;SHT31;58740;50.672;18.690;2023-05-19T00:57:53;9.61;74.99
71082;SHT31;58740;50.672;18.690;2023-05-19T01:00:23;9.61;75.01
71082;SHT31;58740;50.672;18.690;2023-05-19T01:02:51;9.63;75.18
71082;SHT31;58740;50.672;18.690;2023-05-19T01:05:20;9.65;75.20
71082;SHT31;58740;50.672;18.690;2023-05-19T01:07:48;9.68;75.21
71082;SHT31;58740;50.672;18.690;2023-05-19T01:10:21;9.70;75.05
71082;SHT31;58740;50.672;18.690;2023-05-19T01:12:49;9.69;75.05
71082;SHT31;58740;50.672;18.690;2023-05-19T01:15:17;9.70;75.16
71082;SHT31;58740;50.672;18.690;2023-05-19T01:17:51;9.70;75.11
71082;SHT31;58740;50.672;18.690;2023-05-19T01:20:43;9.69;75.15
71082;SHT31;58740;50.672;18.690;2023-05-19T01:23:33;9.68;75.12
71082;SHT31;58740;50.672;18.690;2023-05-19T01:29:31;9.69;75.25
71082;SHT31;58740;50.672;18.690;2023-05-19T01:32:43;9.66;75.20
71082;SHT31;58740;50.672;18.690;2023-05-19T01:35:14;9.63;75.22
71082;SHT31;58740;50.672;18.690;2023-05-19T01:37:43;9.61;75.28
71082;SHT31;58740;50.672;18.690;2023-05-19T01:40:13;9.61;75.32
71082;SHT31;58740;50.672;18.690;2023-05-19T01:42:41;9.61;75.33
71082;SHT31;58740;50.672;18.690;2023-05-19T01:45:09;9.61;75.33
71082;SHT31;58740;50.672;18.690;2023-05-19T01:47:42;9.61;75.42
71082;SHT31;58740;50.672;18.690;2023-05-19T01:50:16;9.59;75.53
71082;SHT31;58740;50.672;18.690;2023-05-19T01:52:44;9.59;75.50
71082;SHT31;58740;50.672;18.690;2023-05-19T01:55:12;9.57;75.60
71082;SHT31;58740;50.672;18.690;2023-05-19T02:07:12;9.48;76.31
71082;SHT31;58740;50.672;18.690;2023-05-19T02:10:05;9.47;76.51
71082;SHT31;58740;50.672;18.690;2023-05-19T02:12:40;9.44;76.49
71082;SHT31;58740;50.672;18.690;2023-05-19T02:15:16;9.43;76.50
71082;SHT31;58740;50.672;18.690;2023-05-19T02:17:49;9.44;76.71
71082;SHT31;58740;50.672;18.690;2023-05-19T02:20:20;9.41;76.86
71082;SHT31;58740;50.672;18.690;2023-05-19T02:22:48;9.38;76.98
71082;SHT31;58740;50.672;18.690;2023-05-19T02:25:16;9.39;77.07
71082;SHT31;58740;50.672;18.690;2023-05-19T02:27:44;9.40;77.06
71082;SHT31;58740;50.672;18.690;2023-05-19T02:30:12;9.39;77.24
71082;SHT31;58740;50.672;18.690;2023-05-19T02:32:40;9.36;77.31
71082;SHT31;58740;50.672;18.690;2023-05-19T02:35:08;9.35;77.40
71082;SHT31;58740;50.672;18.690;2023-05-19T02:37:36;9.38;77.45
71082;SHT31;58740;50.672;18.690;2023-05-19T02:40:04;9.39;77.42
71082;SHT31;58740;50.672;18.690;2023-05-19T02:42:32;9.40;77.48
71082;SHT31;58740;50.672;18.690;2023-05-19T02:45:00;9.41;77.63
71082;SHT31;58740;50.672;18.690;2023-05-19T02:47:28;9.39;77.71
71082;SHT31;58740;50.672;18.690;2023-05-19T02:49:56;9.40;77.63
71082;SHT31;58740;50.672;18.690;2023-05-19T02:52:23;9.41;77.78
71082;SHT31;58740;50.672;18.690;2023-05-19T02:54:51;9.40;77.84
71082;SHT31;58740;50.672;18.690;2023-05-19T02:57:19;9.40;77.90
71082;SHT31;58740;50.672;18.690;2023-05-19T02:59:47;9.41;77.91
71082;SHT31;58740;50.672;18.690;2023-05-19T03:02:15;9.42;78.04
71082;SHT31;58740;50.672;18.690;2023-05-19T03:04:43;9.40;78.08
71082;SHT31;58740;50.672;18.690;2023-05-19T03:07:11;9.39;78.21
71082;SHT31;58740;50.672;18.690;2023-05-19T03:09:39;9.39;78.26
71082;SHT31;58740;50.672;18.690;2023-05-19T03:12:07;9.40;78.17
71082;SHT31;58740;50.672;18.690;2023-05-19T03:14:35;9.40;78.24
71082;SHT31;58740;50.672;18.690;2023-05-19T03:17:05;9.42;78.29
71082;SHT31;58740;50.672;18.690;2023-05-19T03:19:36;9.42;78.20
71082;SHT31;58740;50.672;18.690;2023-05-19T03:22:04;9.45;78.28
71082;SHT31;58740;50.672;18.690;2023-05-19T03:24:33;9.49;78.33
71082;SHT31;58740;50.672;18.690;2023-05-19T03:27:01;9.50;78.29
71082;SHT31;58740;50.672;18.690;2023-05-19T03:29:31;9.51;78.51
71082;SHT31;58740;50.672;18.690;2023-05-19T03:31:59;9.48;78.55
71082;SHT31;58740;50.672;18.690;2023-05-19T03:34:28;9.48;78.58
71082;SHT31;58740;50.672;18.690;2023-05-19T03:36:55;9.51;78.67
71082;SHT31;58740;50.672;18.690;2023-05-19T03:39:23;9.53;78.54
71082;SHT31;58740;50.672;18.690;2023-05-19T03:41:51;9.55;78.60
71082;SHT31;58740;50.672;18.690;2023-05-19T03:44:19;9.56;78.53
71082;SHT31;58740;50.672;18.690;2023-05-19T03:46:47;9.56;78.59
71082;SHT31;58740;50.672;18.690;2023-05-19T03:49:15;9.57;78.61
71082;SHT31;58740;50.672;18.690;2023-05-19T03:51:42;9.60;78.65
71082;SHT31;58740;50.672;18.690;2023-05-19T03:54:10;9.60;78.59
71082;SHT31;58740;50.672;18.690;2023-05-19T03:56:38;9.61;78.63
71082;SHT31;58740;50.672;18.690;2023-05-19T03:59:09;9.59;78.84
71082;SHT31;58740;50.672;18.690;2023-05-19T04:01:38;9.57;78.86
71082;SHT31;58740;50.672;18.690;2023-05-19T04:04:06;9.59;78.77
71082;SHT31;58740;50.672;18.690;2023-05-19T04:06:34;9.60;78.86
71082;SHT31;58740;50.672;18.690;2023-05-19T04:09:02;9.61;78.84
71082;SHT31;58740;50.672;18.690;2023-05-19T04:11:40;9.60;79.08
71082;SHT31;58740;50.672;18.690;2023-05-19T04:14:09;9.59;79.11
71082;SHT31;58740;50.672;18.690;2023-05-19T04:16:37;9.61;79.20
71082;SHT31;58740;50.672;18.690;2023-05-19T04:19:04;9.62;79.05
71082;SHT31;58740;50.672;18.690;2023-05-19T04:21:32;9.63;79.06
71082;SHT31;58740;50.672;18.690;2023-05-19T04:24:00;9.67;79.11
71082;SHT31;58740;50.672;18.690;2023-05-19T04:26:28;9.66;79.19
71082;SHT31;58740;50.672;18.690;2023-05-19T04:28:57;9.67;79.19
71082;SHT31;58740;50.672;18.690;2023-05-19T04:31:25;9.67;79.19
71082;SHT31;58740;50.672;18.690;2023-05-19T04:33:54;9.69;79.21
71082;SHT31;58740;50.672;18.690;2023-05-19T04:36:22;9.67;79.29
71082;SHT31;58740;50.672;18.690;2023-05-19T04:38:50;9.67;79.43
71082;SHT31;58740;50.672;18.690;2023-05-19T04:41:21;9.65;79.54
71082;SHT31;58740;50.672;18.690;2023-05-19T04:43:49;9.65;79.51
71082;SHT31;58740;50.672;18.690;2023-05-19T04:46:17;9.66;79.53
71082;SHT31;58740;50.672;18.690;2023-05-19T04:48:44;9.66;79.60
71082;SHT31;58740;50.672;18.690;2023-05-19T04:51:12;9.65;79.79
71082;SHT31;58740;50.672;18.690;2023-05-19T04:53:40;9.63;79.84
71082;SHT31;58740;50.672;18.690;2023-05-19T04:56:09;9.62;79.94
71082;SHT31;58740;50.672;18.690;2023-05-19T04:58:37;9.61;79.93
71082;SHT31;58740;50.672;18.690;2023-05-19T05:01:08;9.62;79.96
71082;SHT31;58740;50.672;18.690;2023-05-19T05:03:36;9.64;80.00
71082;SHT31;58740;50.672;18.690;2023-05-19T05:06:04;9.64;80.08
71082;SHT31;58740;50.672;18.690;2023-05-19T05:08:33;9.65;80.01
71082;SHT31;58740;50.672;18.690;2023-05-19T05:11:01;9.66;80.25
71082;SHT31;58740;50.672;18.690;2023-05-19T05:13:30;9.66;80.13
71082;SHT31;58740;50.672;18.690;2023-05-19T05:15:58;9.69;80.10
71082;SHT31;58740;50.672;18.690;2023-05-19T05:18:27;9.72;80.15
71082;SHT31;58740;50.672;18.690;2023-05-19T05:20:55;9.72;80.10
71082;SHT31;58740;50.672;18.690;2023-05-19T05:23:23;9.74;79.97
71082;SHT31;58740;50.672;18.690;2023-05-19T05:25:51;9.74;80.18
71082;SHT31;58740;50.672;18.690;2023-05-19T05:28:20;9.72;80.29
71082;SHT31;58740;50.672;18.690;2023-05-19T05:30:48;9.73;80.16
71082;SHT31;58740;50.672;18.690;2023-05-19T05:33:16;9.76;80.05
71082;SHT31;58740;50.672;18.690;2023-05-19T05:35:45;9.80;80.05
71082;SHT31;58740;50.672;18.690;2023-05-19T05:38:13;9.84;80.02
71082;SHT31;58740;50.672;18.690;2023-05-19T05:40:41;9.86;80.00
71082;SHT31;58740;50.672;18.690;2023-05-19T05:43:08;9.91;79.93
71082;SHT31;58740;50.672;18.690;2023-05-19T05:45:36;9.92;79.97
71082;SHT31;58740;50.672;18.690;2023-05-19T05:48:04;9.94;79.93
71082;SHT31;58740;50.672;18.690;2023-05-19T05:50:33;9.97;79.85
71082;SHT31;58740;50.672;18.690;2023-05-19T05:53:01;10.00;79.78
71082;SHT31;58740;50.672;18.690;2023-05-19T05:55:31;10.03;79.76
71082;SHT31;58740;50.672;18.690;2023-05-19T05:58:00;10.06;79.89
71082;SHT31;58740;50.672;18.690;2023-05-19T06:00:28;10.09;79.87
71082;SHT31;58740;50.672;18.690;2023-05-19T06:02:56;10.11;79.81
71082;SHT31;58740;50.672;18.690;2023-05-19T06:05:25;10.15;79.73
71082;SHT31;58740;50.672;18.690;2023-05-19T06:07:53;10.15;79.54
71082;SHT31;58740;50.672;18.690;2023-05-19T06:10:21;10.17;79.53
71082;SHT31;58740;50.672;18.690;2023-05-19T06:12:49;10.20;79.54
71082;SHT31;58740;50.672;18.690;2023-05-19T06:15:17;10.21;79.52
71082;SHT31;58740;50.672;18.690;2023-05-19T06:17:45;10.22;79.57
71082;SHT31;58740;50.672;18.690;2023-05-19T06:20:13;10.25;79.63
71082;SHT31;58740;50.672;18.690;2023-05-19T06:22:41;10.30;79.56
71082;SHT31;58740;50.672;18.690;2023-05-19T06:25:09;10.32;79.33
71082;SHT31;58740;50.672;18.690;2023-05-19T06:27:37;10.36;79.37
71082;SHT31;58740;50.672;18.690;2023-05-19T06:30:05;10.36;79.30
71082;SHT31;58740;50.672;18.690;2023-05-19T06:32:35;10.39;79.26
71082;SHT31;58740;50.672;18.690;2023-05-19T06:35:03;10.43;79.38
71082;SHT31;58740;50.672;18.690;2023-05-19T06:37:31;10.47;79.22
71082;SHT31;58740;50.672;18.690;2023-05-19T06:39:59;10.49;79.01
71082;SHT31;58740;50.672;18.690;2023-05-19T06:42:26;10.51;78.89
71082;SHT31;58740;50.672;18.690;2023-05-19T06:44:54;10.55;79.02
71082;SHT31;58740;50.672;18.690;2023-05-19T06:47:22;10.57;79.02
71082;SHT31;58740;50.672;18.690;2023-05-19T06:49:50;10.56;78.96
71082;SHT31;58740;50.672;18.690;2023-05-19T06:52:21;10.56;78.88
71082;SHT31;58740;50.672;18.690;2023-05-19T06:54:50;10.53;78.88
71082;SHT31;58740;50.672;18.690;2023-05-19T06:57:17;10.53;78.93
71082;SHT31;58740;50.672;18.690;2023-05-19T06:59:45;10.55;78.85
71082;SHT31;58740;50.672;18.690;2023-05-19T07:02:13;10.57;78.92
71082;SHT31;58740;50.672;18.690;2023-05-19T07:04:41;10.60;78.90
71082;SHT31;58740;50.672;18.690;2023-05-19T07:07:09;10.62;78.82
71082;SHT31;58740;50.672;18.690;2023-05-19T07:09:37;10.64;78.65
71082;SHT31;58740;50.672;18.690;2023-05-19T07:12:04;10.66;78.66
71082;SHT31;58740;50.672;18.690;2023-05-19T07:14:33;10.68;78.52
71082;SHT31;58740;50.672;18.690;2023-05-19T07:17:02;10.71;78.65
71082;SHT31;58740;50.672;18.690;2023-05-19T07:19:31;10.74;78.59
71082;SHT31;58740;50.672;18.690;2023-05-19T07:21:59;10.75;78.41
71082;SHT31;58740;50.672;18.690;2023-05-19T07:24:27;10.74;78.25
71082;SHT31;58740;50.672;18.690;2023-05-19T07:26:54;10.75;78.31
71082;SHT31;58740;50.672;18.690;2023-05-19T07:29:22;10.78;78.29
71082;SHT31;58740;50.672;18.690;2023-05-19T07:31:50;10.79;78.38
71082;SHT31;58740;50.672;18.690;2023-05-19T07:34:20;10.80;78.26
71082;SHT31;58740;50.672;18.690;2023-05-19T07:36:48;10.82;78.13
71082;SHT31;58740;50.672;18.690;2023-05-19T07:39:17;10.84;78.11
71082;SHT31;58740;50.672;18.690;2023-05-19T07:41:46;10.85;78.19
71082;SHT31;58740;50.672;18.690;2023-05-19T07:44:19;10.88;78.06
71082;SHT31;58740;50.672;18.690;2023-05-19T07:46:47;10.87;77.95
71082;SHT31;58740;50.672;18.690;2023-05-19T07:49:14;10.89;77.93
71082;SHT31;58740;50.672;18.690;2023-05-19T07:51:42;10.92;77.99
71082;SHT31;58740;50.672;18.690;2023-05-19T07:54:10;10.94;77.90
71082;SHT31;58740;50.672;18.690;2023-05-19T07:56:38;10.97;77.80
71082;SHT31;58740;50.672;18.690;2023-05-19T07:59:06;10.99;77.86
71082;SHT31;58740;50.672;18.690;2023-05-19T08:01:34;11.02;77.86
71082;SHT31;58740;50.672;18.690;2023-05-19T08:04:02;11.04;77.95
71082;SHT31;58740;50.672;18.690;2023-05-19T08:06:30;11.07;77.85
71082;SHT31;58740;50.672;18.690;2023-05-19T08:08:58;11.07;77.58
71082;SHT31;58740;50.672;18.690;2023-05-19T08:11:26;11.09;77.64
71082;SHT31;58740;50.672;18.690;2023-05-19T08:13:54;11.13;77.82
71082;SHT31;58740;50.672;18.690;2023-05-19T08:16:22;11.17;77.82
71082;SHT31;58740;50.672;18.690;2023-05-19T08:18:53;11.21;77.72
71082;SHT31;58740;50.672;18.690;2023-05-19T08:21:25;11.23;77.56
71082;SHT31;58740;50.672;18.690;2023-05-19T08:23:54;11.24;77.36
71082;SHT31;58740;50.672;18.690;2023-05-19T08:26:23;11.27;77.38
71082;SHT31;58740;50.672;18.690;2023-05-19T08:28:51;11.26;77.20
71082;SHT31;58740;50.672;18.690;2023-05-19T08:31:19;11.26;77.15
71082;SHT31;58740;50.672;18.690;2023-05-19T08:33:47;11.29;77.28
71082;SHT31;58740;50.672;18.690;2023-05-19T08:36:14;11.30;77.26
71082;SHT31;58740;50.672;18.690;2023-05-19T08:38:42;11.33;77.14
71082;SHT31;58740;50.672;18.690;2023-05-19T08:41:10;11.33;77.22
71082;SHT31;58740;50.672;18.690;2023-05-19T08:43:38;11.35;77.13
71082;SHT31;58740;50.672;18.690;2023-05-19T08:46:06;11.38;77.05
71082;SHT31;58740;50.672;18.690;2023-05-19T08:48:35;11.39;76.98
71082;SHT31;58740;50.672;18.690;2023-05-19T08:54:14;11.40;77.01
71082;SHT31;58740;50.672;18.690;2023-05-19T08:56:44;11.41;76.72
71082;SHT31;58740;50.672;18.690;2023-05-19T08:59:13;11.40;76.65
71082;SHT31;58740;50.672;18.690;2023-05-19T09:01:45;11.42;76.70
71082;SHT31;58740;50.672;18.690;2023-05-19T09:04:14;11.44;76.60
71082;SHT31;58740;50.672;18.690;2023-05-19T09:06:43;11.45;76.44
71082;SHT31;58740;50.672;18.690;2023-05-19T09:09:12;11.46;76.54
71082;SHT31;58740;50.672;18.690;2023-05-19T09:11:39;11.47;76.53
71082;SHT31;58740;50.672;18.690;2023-05-19T09:14:11;11.53;76.45
71082;SHT31;58740;50.672;18.690;2023-05-19T09:16:39;11.58;76.17
71082;SHT31;58740;50.672;18.690;2023-05-19T09:19:11;11.64;76.02
71082;SHT31;58740;50.672;18.690;2023-05-19T09:21:42;11.67;75.82
71082;SHT31;58740;50.672;18.690;2023-05-19T09:24:12;11.71;75.91
71082;SHT31;58740;50.672;18.690;2023-05-19T09:26:40;11.73;75.96
71082;SHT31;58740;50.672;18.690;2023-05-19T09:29:12;11.75;75.75
71082;SHT31;58740;50.672;18.690;2023-05-19T09:31:46;11.75;75.62
71082;SHT31;58740;50.672;18.690;2023-05-19T09:34:19;11.78;75.95
71082;SHT31;58740;50.672;18.690;2023-05-19T09:36:48;11.81;75.81
71082;SHT31;58740;50.672;18.690;2023-05-19T09:39:21;11.84;75.60
71082;SHT31;58740;50.672;18.690;2023-05-19T09:41:50;11.89;75.53
71082;SHT31;58740;50.672;18.690;2023-05-19T09:44:24;11.91;75.39
71082;SHT31;58740;50.672;18.690;2023-05-19T09:46:57;11.96;75.59
71082;SHT31;58740;50.672;18.690;2023-05-19T09:49:26;11.99;75.52
71082;SHT31;58740;50.672;18.690;2023-05-19T09:51:57;12.00;75.28
71082;SHT31;58740;50.672;18.690;2023-05-19T09:54:29;11.99;75.24
71082;SHT31;58740;50.672;18.690;2023-05-19T09:57:00;12.00;75.14
71082;SHT31;58740;50.672;18.690;2023-05-19T09:59:34;11.99;75.27
71082;SHT31;58740;50.672;18.690;2023-05-19T10:02:05;12.01;75.37
71082;SHT31;58740;50.672;18.690;2023-05-19T10:04:44;12.01;75.07
71082;SHT31;58740;50.672;18.690;2023-05-19T10:07:14;12.01;75.23
71082;SHT31;58740;50.672;18.690;2023-05-19T10:09:44;12.03;75.30
71082;SHT31;58740;50.672;18.690;2023-05-19T10:12:13;12.06;75.22
71082;SHT31;58740;50.672;18.690;2023-05-19T10:14:42;12.06;75.14
71082;SHT31;58740;50.672;18.690;2023-05-19T10:17:10;12.09;75.04
71082;SHT31;58740;50.672;18.690;2023-05-19T10:19:40;12.11;75.09
71082;SHT31;58740;50.672;18.690;2023-05-19T10:22:11;12.14;75.07
71082;SHT31;58740;50.672;18.690;2023-05-19T10:24:39;12.14;74.73
71082;SHT31;58740;50.672;18.690;2023-05-19T10:27:10;12.17;74.97
71082;SHT31;58740;50.672;18.690;2023-05-19T10:29:41;12.20;75.08
71082;SHT31;58740;50.672;18.690;2023-05-19T10:32:18;12.25;74.86
71082;SHT31;58740;50.672;18.690;2023-05-19T10:41:12;12.41;74.77
71082;SHT31;58740;50.672;18.690;2023-05-19T10:46:51;12.43;74.68
71082;SHT31;58740;50.672;18.690;2023-05-19T10:49:22;12.44;74.59
71082;SHT31;58740;50.672;18.690;2023-05-19T10:51:51;12.45;74.60
71082;SHT31;58740;50.672;18.690;2023-05-19T10:54:44;12.47;74.67
71082;SHT31;58740;50.672;18.690;2023-05-19T10:57:16;12.49;74.75
71082;SHT31;58740;50.672;18.690;2023-05-19T10:59:54;12.50;74.42
71082;SHT31;58740;50.672;18.690;2023-05-19T11:02:39;12.49;74.53
71082;SHT31;58740;50.672;18.690;2023-05-19T11:05:14;12.49;74.52
71082;SHT31;58740;50.672;18.690;2023-05-19T11:07:57;12.48;74.47
71082;SHT31;58740;50.672;18.690;2023-05-19T11:10:33;12.51;74.63
71082;SHT31;58740;50.672;18.690;2023-05-19T11:13:01;12.52;74.52
71082;SHT31;58740;50.672;18.690;2023-05-19T11:15:33;12.53;74.33
71082;SHT31;58740;50.672;18.690;2023-05-19T11:18:03;12.54;74.43
71082;SHT31;58740;50.672;18.690;2023-05-19T11:20:31;12.59;74.44
71082;SHT31;58740;50.672;18.690;2023-05-19T11:23:04;12.64;74.30
71082;SHT31;58740;50.672;18.690;2023-05-19T11:25:41;12.66;74.25
71082;SHT31;58740;50.672;18.690;2023-05-19T11:28:20;12.71;74.28
71082;SHT31;58740;50.672;18.690;2023-05-19T11:30:55;12.77;74.24
71082;SHT31;58740;50.672;18.690;2023-05-19T11:33:25;12.85;74.23
71082;SHT31;58740;50.672;18.690;2023-05-19T11:35:54;12.90;73.85
71082;SHT31;58740;50.672;18.690;2023-05-19T11:38:26;12.92;73.86
71082;SHT31;58740;50.672;18.690;2023-05-19T11:40:56;12.97;74.05
71082;SHT31;58740;50.672;18.690;2023-05-19T11:43:24;13.01;73.85
71082;SHT31;58740;50.672;18.690;2023-05-19T11:45:53;13.04;73.80
71082;SHT31;58740;50.672;18.690;2023-05-19T11:48:22;13.08;73.87
71082;SHT31;58740;50.672;18.690;2023-05-19T11:50:52;13.11;73.80
71082;SHT31;58740;50.672;18.690;2023-05-19T11:53:19;13.13;73.66
71082;SHT31;58740;50.672;18.690;2023-05-19T11:55:47;13.16;73.77
71082;SHT31;58740;50.672;18.690;2023-05-19T11:58:16;13.17;73.44
71082;SHT31;58740;50.672;18.690;2023-05-19T12:00:44;13.17;73.41
71082;SHT31;58740;50.672;18.690;2023-05-19T12:03:14;13.16;73.47
71082;SHT31;58740;50.672;18.690;2023-05-19T12:05:53;13.18;73.52
71082;SHT31;58740;50.672;18.690;2023-05-19T12:08:21;13.20;73.40
71082;SHT31;58740;50.672;18.690;2023-05-19T12:10:50;13.21;73.43
71082;SHT31;58740;50.672;18.690;2023-05-19T12:13:19;13.23;73.42
71082;SHT31;58740;50.672;18.690;2023-05-19T12:15:49;13.24;73.25
71082;SHT31;58740;50.672;18.690;2023-05-19T12:18:18;13.22;73.18
71082;SHT31;58740;50.672;18.690;2023-05-19T12:20:47;13.24;73.44
71082;SHT31;58740;50.672;18.690;2023-05-19T12:23:15;13.24;73.22
71082;SHT31;58740;50.672;18.690;2023-05-19T12:25:43;13.26;73.34
71082;SHT31;58740;50.672;18.690;2023-05-19T12:28:12;13.29;73.40
71082;SHT31;58740;50.672;18.690;2023-05-19T12:30:45;13.33;73.13
71082;SHT31;58740;50.672;18.690;2023-05-19T12:33:18;13.34;72.74
71082;SHT31;58740;50.672;18.690;2023-05-19T12:35:49;13.35;72.95
71082;SHT31;58740;50.672;18.690;2023-05-19T12:38:18;13.37;72.94
71082;SHT31;58740;50.672;18.690;2023-05-19T12:40:48;13.39;72.99
71082;SHT31;58740;50.672;18.690;2023-05-19T12:43:20;13.37;72.73
71082;SHT31;58740;50.672;18.690;2023-05-19T12:45:49;13.38;73.01
71082;SHT31;58740;50.672;18.690;2023-05-19T12:48:20;13.38;72.72
71082;SHT31;58740;50.672;18.690;2023-05-19T12:50:52;13.38;72.74
71082;SHT31;58740;50.672;18.690;2023-05-19T12:53:24;13.40;72.72
71082;SHT31;58740;50.672;18.690;2023-05-19T12:55:54;13.42;72.69
71082;SHT31;58740;50.672;18.690;2023-05-19T12:58:22;13.43;72.46
71082;SHT31;58740;50.672;18.690;2023-05-19T13:00:50;13.47;72.90
71082;SHT31;58740;50.672;18.690;2023-05-19T13:03:26;13.50;72.56
71082;SHT31;58740;50.672;18.690;2023-05-19T13:05:54;13.52;72.83
71082;SHT31;58740;50.672;18.690;2023-05-19T13:08:22;13.55;73.01
71082;SHT31;58740;50.672;18.690;2023-05-19T13:10:51;13.56;72.97
71082;SHT31;58740;50.672;18.690;2023-05-19T13:13:19;13.58;73.15
71082;SHT31;58740;50.672;18.690;2023-05-19T13:15:48;13.58;72.72
71082;SHT31;58740;50.672;18.690;2023-05-19T13:18:16;13.56;72.87
71082;SHT31;58740;50.672;18.690;2023-05-19T13:20:45;13.57;72.87
71082;SHT31;58740;50.672;18.690;2023-05-19T13:23:15;13.57;72.84
71082;SHT31;58740;50.672;18.690;2023-05-19T13:25:43;13.58;72.87
71082;SHT31;58740;50.672;18.690;2023-05-19T13:28:13;13.62;72.98
71082;SHT31;58740;50.672;18.690;2023-05-19T13:30:42;13.65;72.94
71082;SHT31;58740;50.672;18.690;2023-05-19T13:33:10;13.65;72.60
71082;SHT31;58740;50.672;18.690;2023-05-19T13:35:38;13.64;72.72
71082;SHT31;58740;50.672;18.690;2023-05-19T13:38:06;13.64;72.80
71082;SHT31;58740;50.672;18.690;2023-05-19T13:40:37;13.63;72.94
71082;SHT31;58740;50.672;18.690;2023-05-19T13:43:06;13.62;72.90
71082;SHT31;58740;50.672;18.690;2023-05-19T13:45:35;13.63;72.78
71082;SHT31;58740;50.672;18.690;2023-05-19T13:48:03;13.63;72.84
71082;SHT31;58740;50.672;18.690;2023-05-19T13:50:34;13.65;72.99
71082;SHT31;58740;50.672;18.690;2023-05-19T13:53:02;13.66;73.05
71082;SHT31;58740;50.672;18.690;2023-05-19T13:55:30;13.70;73.14
71082;SHT31;58740;50.672;18.690;2023-05-19T13:57:59;13.70;73.09
71082;SHT31;58740;50.672;18.690;2023-05-19T14:00:27;13.71;73.07
71082;SHT31;58740;50.672;18.690;2023-05-19T14:02:54;13.68;73.02
71082;SHT31;58740;50.672;18.690;2023-05-19T14:05:22;13.64;72.87
71082;SHT31;58740;50.672;18.690;2023-05-19T14:07:50;13.60;73.10
71082;SHT31;58740;50.672;18.690;2023-05-19T14:10:18;13.59;73.02
71082;SHT31;58740;50.672;18.690;2023-05-19T14:12:46;13.57;73.16
71082;SHT31;58740;50.672;18.690;2023-05-19T14:15:34;13.55;73.12
71082;SHT31;58740;50.672;18.690;2023-05-19T14:18:04;13.52;73.13
71082;SHT31;58740;50.672;18.690;2023-05-19T14:20:45;13.51;73.22
71082;SHT31;58740;50.672;18.690;2023-05-19T14:23:13;13.55;73.61
71082;SHT31;58740;50.672;18.690;2023-05-19T14:25:43;13.57;73.42
71082;SHT31;58740;50.672;18.690;2023-05-19T14:28:11;13.58;73.33
71082;SHT31;58740;50.672;18.690;2023-05-19T14:30:38;13.54;72.94
71082;SHT31;58740;50.672;18.690;2023-05-19T14:33:06;13.50;73.21
71082;SHT31;58740;50.672;18.690;2023-05-19T14:35:35;13.47;73.10
71082;SHT31;58740;50.672;18.690;2023-05-19T14:38:03;13.48;73.45
71082;SHT31;58740;50.672;18.690;2023-05-19T14:40:31;13.48;73.52
71082;SHT31;58740;50.672;18.690;2023-05-19T14:42:59;13.49;73.62
71082;SHT31;58740;50.672;18.690;2023-05-19T14:45:27;13.49;73.54
71082;SHT31;58740;50.672;18.690;2023-05-19T14:47:55;13.49;73.50
71082;SHT31;58740;50.672;18.690;2023-05-19T14:50:23;13.47;73.58
71082;SHT31;58740;50.672;18.690;2023-05-19T14:52:50;13.47;73.51
71082;SHT31;58740;50.672;18.690;2023-05-19T14:55:18;13.47;73.53
71082;SHT31;58740;50.672;18.690;2023-05-19T14:57:46;13.47;73.57
71082;SHT31;58740;50.672;18.690;2023-05-19T15:00:14;13.47;73.64
71082;SHT31;58740;50.672;18.690;2023-05-19T15:02:44;13.46;73.61
71082;SHT31;58740;50.672;18.690;2023-05-19T15:05:12;13.43;73.71
71082;SHT31;58740;50.672;18.690;2023-05-19T15:07:40;13.42;73.82
71082;SHT31;58740;50.672;18.690;2023-05-19T15:10:08;13.43;73.89
71082;SHT31;58740;50.672;18.690;2023-05-19T15:12:36;13.42;73.96
71082;SHT31;58740;50.672;18.690;2023-05-19T15:15:04;13.43;74.08
71082;SHT31;58740;50.672;18.690;2023-05-19T15:17:33;13.43;74.10
71082;SHT31;58740;50.672;18.690;2023-05-19T15:20:01;13.43;73.99
71082;SHT31;58740;50.672;18.690;2023-05-19T15:22:29;13.42;73.93
71082;SHT31;58740;50.672;18.690;2023-05-19T15:24:57;13.41;74.03
71082;SHT31;58740;50.672;18.690;2023-05-19T15:27:26;13.41;73.94
71082;SHT31;58740;50.672;18.690;2023-05-19T15:29:53;13.42;74.08
71082;SHT31;58740;50.672;18.690;2023-05-19T15:32:21;13.42;74.25
71082;SHT31;58740;50.672;18.690;2023-05-19T15:34:49;13.42;74.31
71082;SHT31;58740;50.672;18.690;2023-05-19T15:37:17;13.41;74.24
71082;SHT31;58740;50.672;18.690;2023-05-19T15:39:45;13.40;74.14
71082;SHT31;58740;50.672;18.690;2023-05-19T15:42:12;13.39;74.27
71082;SHT31;58740;50.672;18.690;2023-05-19T15:44:40;13.39;74.43
71082;SHT31;58740;50.672;18.690;2023-05-19T15:47:08;13.37;74.39
71082;SHT31;58740;50.672;18.690;2023-05-19T15:49:36;13.35;74.50
71082;SHT31;58740;50.672;18.690;2023-05-19T15:52:03;13.35;74.55
71082;SHT31;58740;50.672;18.690;2023-05-19T15:54:32;13.36;74.48
71082;SHT31;58740;50.672;18.690;2023-05-19T15:56:59;13.36;74.49
71082;SHT31;58740;50.672;18.690;2023-05-19T15:59:27;13.35;74.42
71082;SHT31;58740;50.672;18.690;2023-05-19T16:01:55;13.33;74.47